PWSweather.com
Personal Weather Stations
Station Observations
TOBYTEX1
Castle Hills North, Lewisville, TX 75056

Castle Hills NorthLewisville, TX 75056

Lat: 33.053555, Lon: -96.909778

Elevation: 527

Station Type: Davis Vantage Pro2 Plus

Latest ConditionsUpdated 5:41:09 PM CDT Saturday, Jul 21, 2018
Currently Today's Max Today's Min Today's Average
Temperature 109.8°F43.2°C 110.7°F43.7°C 81.3°F27.4°C 94.1°F34.5°C
Dew Point 61.0°F16.1°C 70.2°F21.2°C 59.7°F15.4°C 65.6°F18.7°C
Winds 4.0 mph SW6.4 kmh SW 8.9 mph -14.3 kmh - - 4.2 mph 6.8 kmh
Wind Gusts 10.1 mph16.3 kmh 17.0 mph27.4 kmh - -
Humidity 21% 60% 20% 42%
Pressure 29.79 in1008.8 mb 29.89 in1012.2 mb 29.79 in1008.8 mb -
Hour Temp Dew Point Humidity Winds Wind Gusts Pressure Precip Precip Rate Daily Precip Total
05:41 PM 109.8°F43.2°C 61.0°F16.1°C 21% 4.0 mph SW6.4 kmh SW 10.1 mph16.3 kmh 29.79 in1008.8 mb 0.00 in0.0 mm 0.00 in0.0 mm 0.00 in0.0 mm
05:36 PM 109.8°F43.2°C 61.0°F16.1°C 21% 4.0 mph ESE6.4 kmh ESE 8.9 mph14.3 kmh 29.79 in1008.8 mb 0.00 in0.0 mm 0.00 in0.0 mm 0.00 in0.0 mm
05:31 PM 109.8°F43.2°C 59.7°F15.4°C 20% 4.9 mph S7.9 kmh S 8.1 mph13.0 kmh 29.79 in1008.8 mb 0.00 in0.0 mm 0.00 in0.0 mm 0.00 in0.0 mm
05:26 PM 109.9°F43.3°C 61.2°F16.2°C 21% 4.0 mph SSW6.4 kmh SSW 8.9 mph14.3 kmh 29.79 in1008.8 mb 0.00 in0.0 mm 0.00 in0.0 mm 0.00 in0.0 mm
05:21 PM 109.9°F43.3°C 61.2°F16.2°C 21% 4.9 mph S7.9 kmh S 6.9 mph11.1 kmh 29.79 in1008.8 mb 0.00 in0.0 mm 0.00 in0.0 mm 0.00 in0.0 mm
05:16 PM 110.3°F43.5°C 62.8°F17.1°C 22% 4.9 mph E7.9 kmh E 10.1 mph16.3 kmh 29.79 in1008.8 mb 0.00 in0.0 mm 0.00 in0.0 mm 0.00 in0.0 mm
05:11 PM 110.1°F43.4°C 61.3°F16.3°C 21% 4.0 mph SSW6.4 kmh SSW 8.9 mph14.3 kmh 29.79 in1008.8 mb 0.00 in0.0 mm 0.00 in0.0 mm 0.00 in0.0 mm
05:06 PM 110.5°F43.6°C 63.0°F17.2°C 22% 2.9 mph S4.7 kmh S 8.9 mph14.3 kmh 29.79 in1008.8 mb 0.00 in0.0 mm 0.00 in0.0 mm 0.00 in0.0 mm
05:01 PM 110.7°F43.7°C 64.4°F18.0°C 23% 2.9 mph S4.7 kmh S 8.9 mph14.3 kmh 29.79 in1008.8 mb 0.00 in0.0 mm 0.00 in0.0 mm 0.00 in0.0 mm
04:56 PM 110.3°F43.5°C 65.3°F18.5°C 24% 4.0 mph S6.4 kmh S 6.0 mph9.7 kmh 29.79 in1008.8 mb 0.00 in0.0 mm 0.00 in0.0 mm 0.00 in0.0 mm
04:51 PM 109.9°F43.3°C 62.6°F17.0°C 22% 6.0 mph SSW9.7 kmh SSW 8.9 mph14.3 kmh 29.79 in1008.8 mb 0.00 in0.0 mm 0.00 in0.0 mm 0.00 in0.0 mm
04:46 PM 109.9°F43.3°C 62.6°F17.0°C 22% 4.9 mph SSW7.9 kmh SSW 11.0 mph17.7 kmh 29.79 in1008.8 mb 0.00 in0.0 mm 0.00 in0.0 mm 0.00 in0.0 mm
04:41 PM 110.5°F43.6°C 63.0°F17.2°C 22% 2.9 mph SW4.7 kmh SW 8.9 mph14.3 kmh 29.79 in1008.8 mb 0.00 in0.0 mm 0.00 in0.0 mm 0.00 in0.0 mm
04:36 PM 110.3°F43.5°C 64.0°F17.8°C 23% 2.9 mph W4.7 kmh W 8.1 mph13.0 kmh 29.79 in1008.8 mb 0.00 in0.0 mm 0.00 in0.0 mm 0.00 in0.0 mm
04:31 PM 110.5°F43.6°C 61.7°F16.5°C 21% 4.0 mph SE6.4 kmh SE 8.1 mph13.0 kmh 29.79 in1008.8 mb 0.00 in0.0 mm 0.00 in0.0 mm 0.00 in0.0 mm
04:26 PM 110.3°F43.5°C 64.0°F17.8°C 23% 2.9 mph SW4.7 kmh SW 8.1 mph13.0 kmh 29.80 in1009.1 mb 0.00 in0.0 mm 0.00 in0.0 mm 0.00 in0.0 mm
04:20 PM 109.9°F43.3°C 62.6°F17.0°C 22% 4.0 mph W6.4 kmh W 6.0 mph9.7 kmh 29.80 in1009.1 mb 0.00 in0.0 mm 0.00 in0.0 mm 0.00 in0.0 mm
04:15 PM 109.6°F43.1°C 63.5°F17.5°C 23% 4.9 mph S7.9 kmh S 11.0 mph17.7 kmh 29.80 in1009.1 mb 0.00 in0.0 mm 0.00 in0.0 mm 0.00 in0.0 mm
04:10 PM 109.2°F42.9°C 64.4°F18.0°C 24% 4.0 mph SW6.4 kmh SW 8.9 mph14.3 kmh 29.80 in1009.1 mb 0.00 in0.0 mm 0.00 in0.0 mm 0.00 in0.0 mm
04:05 PM 109.4°F43.0°C 63.3°F17.4°C 23% 6.0 mph S9.7 kmh S 8.9 mph14.3 kmh 29.80 in1009.1 mb 0.00 in0.0 mm 0.00 in0.0 mm 0.00 in0.0 mm
04:00 PM 109.6°F43.1°C 63.5°F17.5°C 23% 6.0 mph SW9.7 kmh SW 16.0 mph25.7 kmh 29.80 in1009.1 mb 0.00 in0.0 mm 0.00 in0.0 mm 0.00 in0.0 mm
03:55 PM 109.9°F43.3°C 64.9°F18.3°C 24% 4.0 mph S6.4 kmh S 12.1 mph19.5 kmh 29.80 in1009.1 mb 0.00 in0.0 mm 0.00 in0.0 mm 0.00 in0.0 mm
03:50 PM 109.8°F43.2°C 64.9°F18.3°C 24% 4.0 mph SW6.4 kmh SW 8.9 mph14.3 kmh 29.80 in1009.1 mb 0.00 in0.0 mm 0.00 in0.0 mm 0.00 in0.0 mm
03:45 PM 109.2°F42.9°C 64.4°F18.0°C 24% 4.0 mph W6.4 kmh W 10.1 mph16.3 kmh 29.81 in1009.5 mb 0.00 in0.0 mm 0.00 in0.0 mm 0.00 in0.0 mm
03:40 PM 108.9°F42.7°C 64.0°F17.8°C 24% 4.9 mph SW7.9 kmh SW 8.9 mph14.3 kmh 29.81 in1009.5 mb 0.00 in0.0 mm 0.00 in0.0 mm 0.00 in0.0 mm
03:35 PM 108.7°F42.6°C 64.0°F17.8°C 24% 4.0 mph SSW6.4 kmh SSW 17.0 mph27.4 kmh 29.81 in1009.5 mb 0.00 in0.0 mm 0.00 in0.0 mm 0.00 in0.0 mm
03:30 PM 108.3°F42.4°C 63.7°F17.6°C 24% 4.9 mph SSW7.9 kmh SSW 11.0 mph17.7 kmh 29.81 in1009.5 mb 0.00 in0.0 mm 0.00 in0.0 mm 0.00 in0.0 mm
03:25 PM 108.1°F42.3°C 64.8°F18.2°C 25% 6.0 mph SW9.7 kmh SW 11.0 mph17.7 kmh 29.82 in1009.8 mb 0.00 in0.0 mm 0.00 in0.0 mm 0.00 in0.0 mm
03:20 PM 108.3°F42.4°C 63.7°F17.6°C 24% 4.9 mph SW7.9 kmh SW 12.1 mph19.5 kmh 29.82 in1009.8 mb 0.00 in0.0 mm 0.00 in0.0 mm 0.00 in0.0 mm
03:15 PM 108.3°F42.4°C 64.8°F18.2°C 25% 4.9 mph S7.9 kmh S 8.1 mph13.0 kmh 29.82 in1009.8 mb 0.00 in0.0 mm 0.00 in0.0 mm 0.00 in0.0 mm
03:10 PM 108.3°F42.4°C 64.8°F18.2°C 25% 4.9 mph SW7.9 kmh SW 11.0 mph17.7 kmh 29.82 in1009.8 mb 0.00 in0.0 mm 0.00 in0.0 mm 0.00 in0.0 mm
03:05 PM 108.5°F42.5°C 66.2°F19.0°C 26% 4.0 mph S6.4 kmh S 10.1 mph16.3 kmh 29.83 in1010.2 mb 0.00 in0.0 mm 0.00 in0.0 mm 0.00 in0.0 mm
03:00 PM 108.0°F42.2°C 66.7°F19.3°C 27% 4.9 mph SW7.9 kmh SW 6.9 mph11.1 kmh 29.83 in1010.2 mb 0.00 in0.0 mm 0.00 in0.0 mm 0.00 in0.0 mm
02:55 PM 108.0°F42.2°C 63.3°F17.4°C 24% 6.0 mph SSW9.7 kmh SSW 10.1 mph16.3 kmh 29.83 in1010.2 mb 0.00 in0.0 mm 0.00 in0.0 mm 0.00 in0.0 mm
02:50 PM 107.8°F42.1°C 63.1°F17.3°C 24% 4.9 mph SSW7.9 kmh SSW 11.0 mph17.7 kmh 29.83 in1010.2 mb 0.00 in0.0 mm 0.00 in0.0 mm 0.00 in0.0 mm
02:45 PM 107.2°F41.8°C 65.1°F18.4°C 26% 2.9 mph SW4.7 kmh SW 10.1 mph16.3 kmh 29.83 in1010.2 mb 0.00 in0.0 mm 0.00 in0.0 mm 0.00 in0.0 mm
02:40 PM 107.1°F41.7°C 68.0°F20.0°C 29% 4.0 mph WNW6.4 kmh WNW 6.9 mph11.1 kmh 29.83 in1010.2 mb 0.00 in0.0 mm 0.00 in0.0 mm 0.00 in0.0 mm
02:35 PM 107.4°F41.9°C 65.1°F18.4°C 26% 4.9 mph S7.9 kmh S 8.1 mph13.0 kmh 29.83 in1010.2 mb 0.00 in0.0 mm 0.00 in0.0 mm 0.00 in0.0 mm
02:30 PM 108.0°F42.2°C 65.7°F18.7°C 26% 4.9 mph S7.9 kmh S 10.1 mph16.3 kmh 29.83 in1010.2 mb 0.00 in0.0 mm 0.00 in0.0 mm 0.00 in0.0 mm
02:25 PM 108.1°F42.3°C 65.8°F18.8°C 26% 4.0 mph SW6.4 kmh SW 8.9 mph14.3 kmh 29.84 in1010.5 mb 0.00 in0.0 mm 0.00 in0.0 mm 0.00 in0.0 mm
02:20 PM 107.8°F42.1°C 65.5°F18.6°C 26% 4.0 mph SSW6.4 kmh SSW 12.1 mph19.5 kmh 29.84 in1010.5 mb 0.00 in0.0 mm 0.00 in0.0 mm 0.00 in0.0 mm
02:15 PM 107.6°F42.0°C 67.5°F19.7°C 28% 4.0 mph SW6.4 kmh SW 6.9 mph11.1 kmh 29.84 in1010.5 mb 0.00 in0.0 mm 0.00 in0.0 mm 0.00 in0.0 mm
02:10 PM 107.2°F41.8°C 65.1°F18.4°C 26% 4.0 mph SW6.4 kmh SW 11.0 mph17.7 kmh 29.84 in1010.5 mb 0.00 in0.0 mm 0.00 in0.0 mm 0.00 in0.0 mm
02:05 PM 106.9°F41.6°C 66.9°F19.4°C 28% 4.9 mph SW7.9 kmh SW 8.1 mph13.0 kmh 29.84 in1010.5 mb 0.00 in0.0 mm 0.00 in0.0 mm 0.00 in0.0 mm
02:00 PM 106.5°F41.4°C 67.6°F19.8°C 29% 4.9 mph SW7.9 kmh SW 11.0 mph17.7 kmh 29.84 in1010.5 mb 0.00 in0.0 mm 0.00 in0.0 mm 0.00 in0.0 mm
01:55 PM 106.9°F41.6°C 66.9°F19.4°C 28% 2.9 mph SSW4.7 kmh SSW 11.0 mph17.7 kmh 29.84 in1010.5 mb 0.00 in0.0 mm 0.00 in0.0 mm 0.00 in0.0 mm
01:50 PM 106.5°F41.4°C 66.6°F19.2°C 28% 2.9 mph W4.7 kmh W 8.9 mph14.3 kmh 29.84 in1010.5 mb 0.00 in0.0 mm 0.00 in0.0 mm 0.00 in0.0 mm
01:45 PM 106.0°F41.1°C 67.1°F19.5°C 29% 2.9 mph SW4.7 kmh SW 8.1 mph13.0 kmh 29.85 in1010.8 mb 0.00 in0.0 mm 0.00 in0.0 mm 0.00 in0.0 mm
01:40 PM 105.8°F41.0°C 68.0°F20.0°C 30% 2.9 mph WSW4.7 kmh WSW 6.9 mph11.1 kmh 29.85 in1010.8 mb 0.00 in0.0 mm 0.00 in0.0 mm 0.00 in0.0 mm
01:35 PM 105.4°F40.8°C 65.7°F18.7°C 28% 4.0 mph SW6.4 kmh SW 8.9 mph14.3 kmh 29.85 in1010.8 mb 0.00 in0.0 mm 0.00 in0.0 mm 0.00 in0.0 mm
01:30 PM 104.5°F40.3°C 66.9°F19.4°C 30% 4.9 mph SSW7.9 kmh SSW 8.9 mph14.3 kmh 29.85 in1010.8 mb 0.00 in0.0 mm 0.00 in0.0 mm 0.00 in0.0 mm
01:25 PM 104.4°F40.2°C 65.8°F18.8°C 29% 6.0 mph S9.7 kmh S 10.1 mph16.3 kmh 29.85 in1010.8 mb 0.00 in0.0 mm 0.00 in0.0 mm 0.00 in0.0 mm
01:20 PM 104.2°F40.1°C 66.6°F19.2°C 30% 4.9 mph SSW7.9 kmh SSW 8.9 mph14.3 kmh 29.85 in1010.8 mb 0.00 in0.0 mm 0.00 in0.0 mm 0.00 in0.0 mm
01:15 PM 103.8°F39.9°C 68.2°F20.1°C 32% 4.9 mph W7.9 kmh W 10.1 mph16.3 kmh 29.85 in1010.8 mb 0.00 in0.0 mm 0.00 in0.0 mm 0.00 in0.0 mm
01:10 PM 103.6°F39.8°C 68.0°F20.0°C 32% 4.9 mph WSW7.9 kmh WSW 11.0 mph17.7 kmh 29.85 in1010.8 mb 0.00 in0.0 mm 0.00 in0.0 mm 0.00 in0.0 mm
01:05 PM 103.6°F39.8°C 67.1°F19.5°C 31% 4.9 mph SW7.9 kmh SW 10.1 mph16.3 kmh 29.85 in1010.8 mb 0.00 in0.0 mm 0.00 in0.0 mm 0.00 in0.0 mm
01:00 PM 103.3°F39.6°C 67.6°F19.8°C 32% 6.0 mph SSW9.7 kmh SSW 8.1 mph13.0 kmh 29.85 in1010.8 mb 0.00 in0.0 mm 0.00 in0.0 mm 0.00 in0.0 mm
12:55 PM 103.3°F39.6°C 66.7°F19.3°C 31% 6.0 mph S9.7 kmh S 11.0 mph17.7 kmh 29.86 in1011.2 mb 0.00 in0.0 mm 0.00 in0.0 mm 0.00 in0.0 mm
12:50 PM 103.5°F39.7°C 67.8°F19.9°C 32% 6.0 mph SW9.7 kmh SW 10.1 mph16.3 kmh 29.86 in1011.2 mb 0.00 in0.0 mm 0.00 in0.0 mm 0.00 in0.0 mm
12:45 PM 103.5°F39.7°C 67.8°F19.9°C 32% 6.0 mph SW9.7 kmh SW 13.0 mph20.9 kmh 29.86 in1011.2 mb 0.00 in0.0 mm 0.00 in0.0 mm 0.00 in0.0 mm
12:40 PM 103.8°F39.9°C 68.2°F20.1°C 32% 4.0 mph S6.4 kmh S 10.1 mph16.3 kmh 29.86 in1011.2 mb 0.00 in0.0 mm 0.00 in0.0 mm 0.00 in0.0 mm
12:35 PM 104.0°F40.0°C 68.4°F20.2°C 32% 2.9 mph S4.7 kmh S 8.9 mph14.3 kmh 29.87 in1011.5 mb 0.00 in0.0 mm 0.00 in0.0 mm 0.00 in0.0 mm
12:30 PM 104.2°F40.1°C 68.5°F20.3°C 32% 2.9 mph W4.7 kmh W 8.1 mph13.0 kmh 29.87 in1011.5 mb 0.00 in0.0 mm 0.00 in0.0 mm 0.00 in0.0 mm
12:25 PM 103.5°F39.7°C 68.7°F20.4°C 33% 2.9 mph W4.7 kmh W 6.0 mph9.7 kmh 29.87 in1011.5 mb 0.00 in0.0 mm 0.00 in0.0 mm 0.00 in0.0 mm
12:20 PM 102.6°F39.2°C 68.9°F20.5°C 34% 4.0 mph WSW6.4 kmh WSW 8.9 mph14.3 kmh 29.87 in1011.5 mb 0.00 in0.0 mm 0.00 in0.0 mm 0.00 in0.0 mm
12:15 PM 102.2°F39.0°C 67.6°F19.8°C 33% 4.0 mph SSW6.4 kmh SSW 6.9 mph11.1 kmh 29.87 in1011.5 mb 0.00 in0.0 mm 0.00 in0.0 mm 0.00 in0.0 mm
12:10 PM 102.2°F39.0°C 69.3°F20.7°C 35% 4.9 mph W7.9 kmh W 8.9 mph14.3 kmh 29.88 in1011.9 mb 0.00 in0.0 mm 0.00 in0.0 mm 0.00 in0.0 mm
12:05 PM 102.0°F38.9°C 68.4°F20.2°C 34% 4.0 mph SSW6.4 kmh SSW 8.9 mph14.3 kmh 29.88 in1011.9 mb 0.00 in0.0 mm 0.00 in0.0 mm 0.00 in0.0 mm
12:00 PM 101.3°F38.5°C 68.5°F20.3°C 35% 4.0 mph SW6.4 kmh SW 10.1 mph16.3 kmh 29.88 in1011.9 mb 0.00 in0.0 mm 0.00 in0.0 mm 0.00 in0.0 mm
11:55 AM 101.1°F38.4°C 67.6°F19.8°C 34% 4.0 mph SSW6.4 kmh SSW 11.0 mph17.7 kmh 29.88 in1011.9 mb 0.00 in0.0 mm 0.00 in0.0 mm 0.00 in0.0 mm
11:50 AM 100.8°F38.2°C 68.2°F20.1°C 35% 4.0 mph W6.4 kmh W 8.9 mph14.3 kmh 29.88 in1011.9 mb 0.00 in0.0 mm 0.00 in0.0 mm 0.00 in0.0 mm
11:45 AM 100.8°F38.2°C 68.9°F20.5°C 36% 4.0 mph WNW6.4 kmh WNW 11.0 mph17.7 kmh 29.88 in1011.9 mb 0.00 in0.0 mm 0.00 in0.0 mm 0.00 in0.0 mm
11:40 AM 100.6°F38.1°C 68.7°F20.4°C 36% 4.9 mph W7.9 kmh W 11.0 mph17.7 kmh 29.88 in1011.9 mb 0.00 in0.0 mm 0.00 in0.0 mm 0.00 in0.0 mm
11:35 AM 100.0°F37.8°C 68.4°F20.2°C 36% 4.9 mph W7.9 kmh W 10.1 mph16.3 kmh 29.89 in1012.2 mb 0.00 in0.0 mm 0.00 in0.0 mm 0.00 in0.0 mm
11:30 AM 99.9°F37.7°C 68.9°F20.5°C 37% 4.0 mph W6.4 kmh W 12.1 mph19.5 kmh 29.89 in1012.2 mb 0.00 in0.0 mm 0.00 in0.0 mm 0.00 in0.0 mm
11:25 AM 99.5°F37.5°C 68.5°F20.3°C 37% 2.9 mph SW4.7 kmh SW 6.0 mph9.7 kmh 29.89 in1012.2 mb 0.00 in0.0 mm 0.00 in0.0 mm 0.00 in0.0 mm
11:19 AM 99.3°F37.4°C 69.3°F20.7°C 38% 2.9 mph WSW4.7 kmh WSW 8.1 mph13.0 kmh 29.89 in1012.2 mb 0.00 in0.0 mm 0.00 in0.0 mm 0.00 in0.0 mm
11:14 AM 98.6°F37.0°C 70.2°F21.2°C 40% 4.0 mph W6.4 kmh W 12.1 mph19.5 kmh 29.89 in1012.2 mb 0.00 in0.0 mm 0.00 in0.0 mm 0.00 in0.0 mm
11:09 AM 98.2°F36.8°C 69.1°F20.6°C 39% 4.9 mph SW7.9 kmh SW 8.9 mph14.3 kmh 29.89 in1012.2 mb 0.00 in0.0 mm 0.00 in0.0 mm 0.00 in0.0 mm
11:04 AM 98.1°F36.7°C 68.9°F20.5°C 39% 6.0 mph WSW9.7 kmh WSW 12.1 mph19.5 kmh 29.89 in1012.2 mb 0.00 in0.0 mm 0.00 in0.0 mm 0.00 in0.0 mm
10:59 AM 97.7°F36.5°C 68.5°F20.3°C 39% 6.0 mph SW9.7 kmh SW 11.0 mph17.7 kmh 29.89 in1012.2 mb 0.00 in0.0 mm 0.00 in0.0 mm 0.00 in0.0 mm
10:54 AM 97.2°F36.2°C 68.7°F20.4°C 40% 6.0 mph W9.7 kmh W 13.0 mph20.9 kmh 29.89 in1012.2 mb 0.00 in0.0 mm 0.00 in0.0 mm 0.00 in0.0 mm
10:49 AM 96.4°F35.8°C 68.9°F20.5°C 41% 6.0 mph SW9.7 kmh SW 12.1 mph19.5 kmh 29.89 in1012.2 mb 0.00 in0.0 mm 0.00 in0.0 mm 0.00 in0.0 mm
10:44 AM 95.7°F35.4°C 69.6°F20.9°C 43% 6.9 mph SW11.1 kmh SW 14.1 mph22.7 kmh 29.88 in1011.9 mb 0.00 in0.0 mm 0.00 in0.0 mm 0.00 in0.0 mm
10:39 AM 95.5°F35.3°C 68.0°F20.0°C 41% 6.0 mph WNW9.7 kmh WNW 13.0 mph20.9 kmh 29.89 in1012.2 mb 0.00 in0.0 mm 0.00 in0.0 mm 0.00 in0.0 mm
10:34 AM 95.0°F35.0°C 68.9°F20.5°C 43% 6.0 mph SSW9.7 kmh SSW 12.1 mph19.5 kmh 29.88 in1011.9 mb 0.00 in0.0 mm 0.00 in0.0 mm 0.00 in0.0 mm
10:29 AM 94.5°F34.7°C 68.5°F20.3°C 43% 6.9 mph W11.1 kmh W 13.0 mph20.9 kmh 29.88 in1011.9 mb 0.00 in0.0 mm 0.00 in0.0 mm 0.00 in0.0 mm
10:24 AM 93.9°F34.4°C 68.0°F20.0°C 43% 6.9 mph SW11.1 kmh SW 14.1 mph22.7 kmh 29.87 in1011.5 mb 0.00 in0.0 mm 0.00 in0.0 mm 0.00 in0.0 mm
10:19 AM 93.6°F34.2°C 67.6°F19.8°C 43% 6.9 mph SSW11.1 kmh SSW 17.0 mph27.4 kmh 29.87 in1011.5 mb 0.00 in0.0 mm 0.00 in0.0 mm 0.00 in0.0 mm
10:14 AM 93.2°F34.0°C 67.5°F19.7°C 43% 8.1 mph SW13.0 kmh SW 14.1 mph22.7 kmh 29.87 in1011.5 mb 0.00 in0.0 mm 0.00 in0.0 mm 0.00 in0.0 mm
10:09 AM 93.0°F33.9°C 67.8°F19.9°C 44% 8.9 mph WSW14.3 kmh WSW 15.0 mph24.1 kmh 29.87 in1011.5 mb 0.00 in0.0 mm 0.00 in0.0 mm 0.00 in0.0 mm
10:04 AM 92.7°F33.7°C 68.2°F20.1°C 45% 8.1 mph S13.0 kmh S 17.0 mph27.4 kmh 29.87 in1011.5 mb 0.00 in0.0 mm 0.00 in0.0 mm 0.00 in0.0 mm
09:59 AM 91.9°F33.3°C 67.6°F19.8°C 45% 6.9 mph SW11.1 kmh SW 15.0 mph24.1 kmh 29.88 in1011.9 mb 0.00 in0.0 mm 0.00 in0.0 mm 0.00 in0.0 mm
09:54 AM 91.4°F33.0°C 67.6°F19.8°C 46% 8.1 mph SW13.0 kmh SW 13.0 mph20.9 kmh 29.88 in1011.9 mb 0.00 in0.0 mm 0.00 in0.0 mm 0.00 in0.0 mm
09:49 AM 91.0°F32.8°C 66.7°F19.3°C 45% 8.1 mph SW13.0 kmh SW 17.0 mph27.4 kmh 29.88 in1011.9 mb 0.00 in0.0 mm 0.00 in0.0 mm 0.00 in0.0 mm
09:44 AM 90.9°F32.7°C 67.8°F19.9°C 47% 6.9 mph SW11.1 kmh SW 14.1 mph22.7 kmh 29.89 in1012.2 mb 0.00 in0.0 mm 0.00 in0.0 mm 0.00 in0.0 mm
09:39 AM 90.7°F32.6°C 67.6°F19.8°C 47% 6.9 mph SW11.1 kmh SW 12.1 mph19.5 kmh 29.89 in1012.2 mb 0.00 in0.0 mm 0.00 in0.0 mm 0.00 in0.0 mm
09:34 AM 90.0°F32.2°C 67.6°F19.8°C 48% 8.1 mph SSW13.0 kmh SSW 12.1 mph19.5 kmh 29.89 in1012.2 mb 0.00 in0.0 mm 0.00 in0.0 mm 0.00 in0.0 mm
09:29 AM 89.4°F31.9°C 66.6°F19.2°C 47% 8.1 mph S13.0 kmh S 15.0 mph24.1 kmh 29.88 in1011.9 mb 0.00 in0.0 mm 0.00 in0.0 mm 0.00 in0.0 mm
09:24 AM 89.2°F31.8°C 66.9°F19.4°C 48% 6.9 mph SW11.1 kmh SW 13.0 mph20.9 kmh 29.89 in1012.2 mb 0.00 in0.0 mm 0.00 in0.0 mm 0.00 in0.0 mm
09:19 AM 88.9°F31.6°C 67.3°F19.6°C 49% 6.0 mph S9.7 kmh S 11.0 mph17.7 kmh 29.89 in1012.2 mb 0.00 in0.0 mm 0.00 in0.0 mm 0.00 in0.0 mm
09:14 AM 88.3°F31.3°C 66.7°F19.3°C 49% 6.0 mph SW9.7 kmh SW 10.1 mph16.3 kmh 29.89 in1012.2 mb 0.00 in0.0 mm 0.00 in0.0 mm 0.00 in0.0 mm
09:09 AM 87.8°F31.0°C 66.9°F19.4°C 50% 6.0 mph SW9.7 kmh SW 12.1 mph19.5 kmh 29.89 in1012.2 mb 0.00 in0.0 mm 0.00 in0.0 mm 0.00 in0.0 mm
09:04 AM 87.3°F30.7°C 66.9°F19.4°C 51% 6.0 mph S9.7 kmh S 8.9 mph14.3 kmh 29.89 in1012.2 mb 0.00 in0.0 mm 0.00 in0.0 mm 0.00 in0.0 mm
08:59 AM 86.7°F30.4°C 66.9°F19.4°C 52% 6.0 mph SW9.7 kmh SW 11.0 mph17.7 kmh 29.89 in1012.2 mb 0.00 in0.0 mm 0.00 in0.0 mm 0.00 in0.0 mm
08:54 AM 86.4°F30.2°C 66.7°F19.3°C 52% 6.0 mph SSW9.7 kmh SSW 10.1 mph16.3 kmh 29.89 in1012.2 mb 0.00 in0.0 mm 0.00 in0.0 mm 0.00 in0.0 mm
08:49 AM 86.4°F30.2°C 67.3°F19.6°C 53% 6.0 mph S9.7 kmh S 8.1 mph13.0 kmh 29.89 in1012.2 mb 0.00 in0.0 mm 0.00 in0.0 mm 0.00 in0.0 mm
08:44 AM 86.2°F30.1°C 67.1°F19.5°C 53% 6.0 mph S9.7 kmh S 8.1 mph13.0 kmh 29.88 in1011.9 mb 0.00 in0.0 mm 0.00 in0.0 mm 0.00 in0.0 mm
08:39 AM 85.6°F29.8°C 67.1°F19.5°C 54% 4.9 mph SSW7.9 kmh SSW 10.1 mph16.3 kmh 29.88 in1011.9 mb 0.00 in0.0 mm 0.00 in0.0 mm 0.00 in0.0 mm
08:34 AM 85.3°F29.6°C 67.3°F19.6°C 55% 4.9 mph SW7.9 kmh SW 8.1 mph13.0 kmh 29.89 in1012.2 mb 0.00 in0.0 mm 0.00 in0.0 mm 0.00 in0.0 mm
08:29 AM 84.7°F29.3°C 67.3°F19.6°C 56% 4.9 mph SW7.9 kmh SW 8.9 mph14.3 kmh 29.89 in1012.2 mb 0.00 in0.0 mm 0.00 in0.0 mm 0.00 in0.0 mm
08:24 AM 84.4°F29.1°C 66.9°F19.4°C 56% 4.9 mph S7.9 kmh S 8.9 mph14.3 kmh 29.89 in1012.2 mb 0.00 in0.0 mm 0.00 in0.0 mm 0.00 in0.0 mm
08:19 AM 83.8°F28.8°C 66.9°F19.4°C 57% 4.9 mph S7.9 kmh S 10.1 mph16.3 kmh 29.88 in1011.9 mb 0.00 in0.0 mm 0.00 in0.0 mm 0.00 in0.0 mm
08:14 AM 83.5°F28.6°C 67.1°F19.5°C 58% 4.0 mph S6.4 kmh S 8.9 mph14.3 kmh 29.89 in1012.2 mb 0.00 in0.0 mm 0.00 in0.0 mm 0.00 in0.0 mm
08:09 AM 83.1°F28.4°C 66.7°F19.3°C 58% 4.0 mph SE6.4 kmh SE 6.9 mph11.1 kmh 29.88 in1011.9 mb 0.00 in0.0 mm 0.00 in0.0 mm 0.00 in0.0 mm
08:04 AM 82.9°F28.3°C 67.1°F19.5°C 59% 4.0 mph S6.4 kmh S 8.1 mph13.0 kmh 29.88 in1011.9 mb 0.00 in0.0 mm 0.00 in0.0 mm 0.00 in0.0 mm
07:59 AM 82.6°F28.1°C 66.7°F19.3°C 59% 4.0 mph SW6.4 kmh SW 8.1 mph13.0 kmh 29.88 in1011.9 mb 0.00 in0.0 mm 0.00 in0.0 mm 0.00 in0.0 mm
07:54 AM 82.4°F28.0°C 66.6°F19.2°C 59% 4.0 mph S6.4 kmh S 8.1 mph13.0 kmh 29.88 in1011.9 mb 0.00 in0.0 mm 0.00 in0.0 mm 0.00 in0.0 mm
07:49 AM 82.2°F27.9°C 66.4°F19.1°C 59% 2.9 mph S4.7 kmh S 6.9 mph11.1 kmh 29.88 in1011.9 mb 0.00 in0.0 mm 0.00 in0.0 mm 0.00 in0.0 mm
07:44 AM 82.0°F27.8°C 66.4°F19.1°C 59% 2.9 mph SSW4.7 kmh SSW 6.0 mph9.7 kmh 29.88 in1011.9 mb 0.00 in0.0 mm 0.00 in0.0 mm 0.00 in0.0 mm
07:39 AM 82.0°F27.8°C 66.4°F19.1°C 59% 4.0 mph S6.4 kmh S 6.0 mph9.7 kmh 29.88 in1011.9 mb 0.00 in0.0 mm 0.00 in0.0 mm 0.00 in0.0 mm
07:34 AM 81.9°F27.7°C 66.2°F19.0°C 59% 4.0 mph SE6.4 kmh SE 6.9 mph11.1 kmh 29.88 in1011.9 mb 0.00 in0.0 mm 0.00 in0.0 mm 0.00 in0.0 mm
07:29 AM 81.7°F27.6°C 66.0°F18.9°C 59% 4.0 mph SW6.4 kmh SW 6.9 mph11.1 kmh 29.88 in1011.9 mb 0.00 in0.0 mm 0.00 in0.0 mm 0.00 in0.0 mm
07:24 AM 81.5°F27.5°C 65.8°F18.8°C 59% 4.0 mph SW6.4 kmh SW 6.9 mph11.1 kmh 29.88 in1011.9 mb 0.00 in0.0 mm 0.00 in0.0 mm 0.00 in0.0 mm
07:19 AM 81.3°F27.4°C 66.0°F18.9°C 60% 2.9 mph SSW4.7 kmh SSW 8.1 mph13.0 kmh 29.88 in1011.9 mb 0.00 in0.0 mm 0.00 in0.0 mm 0.00 in0.0 mm
07:13 AM 81.3°F27.4°C 66.0°F18.9°C 60% 2.9 mph SSE4.7 kmh SSE 6.9 mph11.1 kmh 29.88 in1011.9 mb 0.00 in0.0 mm 0.00 in0.0 mm 0.00 in0.0 mm
07:08 AM 81.3°F27.4°C 66.0°F18.9°C 60% 2.9 mph S4.7 kmh S 4.0 mph6.4 kmh 29.88 in1011.9 mb 0.00 in0.0 mm 0.00 in0.0 mm 0.00 in0.0 mm
07:03 AM 81.3°F27.4°C 66.0°F18.9°C 60% 2.9 mph SSW4.7 kmh SSW 4.9 mph7.9 kmh 29.88 in1011.9 mb 0.00 in0.0 mm 0.00 in0.0 mm 0.00 in0.0 mm
06:58 AM 81.3°F27.4°C 66.0°F18.9°C 60% 2.9 mph S4.7 kmh S 4.9 mph7.9 kmh 29.88 in1011.9 mb 0.00 in0.0 mm 0.00 in0.0 mm 0.00 in0.0 mm
06:53 AM 81.3°F27.4°C 66.0°F18.9°C 60% 2.9 mph SSW4.7 kmh SSW 6.0 mph9.7 kmh 29.88 in1011.9 mb 0.00 in0.0 mm 0.00 in0.0 mm 0.00 in0.0 mm
06:48 AM 81.3°F27.4°C 65.7°F18.7°C 59% 2.0 mph SSW3.2 kmh SSW 4.9 mph7.9 kmh 29.88 in1011.9 mb 0.00 in0.0 mm 0.00 in0.0 mm 0.00 in0.0 mm
06:43 AM 81.3°F27.4°C 65.7°F18.7°C 59% 2.0 mph SSW3.2 kmh SSW 2.9 mph4.7 kmh 29.88 in1011.9 mb 0.00 in0.0 mm 0.00 in0.0 mm 0.00 in0.0 mm
06:38 AM 81.5°F27.5°C 65.8°F18.8°C 59% 2.0 mph SSW3.2 kmh SSW 2.9 mph4.7 kmh 29.88 in1011.9 mb 0.00 in0.0 mm 0.00 in0.0 mm 0.00 in0.0 mm
06:33 AM 81.7°F27.6°C 66.0°F18.9°C 59% 2.0 mph SSW3.2 kmh SSW 4.0 mph6.4 kmh 29.87 in1011.5 mb 0.00 in0.0 mm 0.00 in0.0 mm 0.00 in0.0 mm
06:28 AM 81.7°F27.6°C 66.0°F18.9°C 59% 2.0 mph SSW3.2 kmh SSW 2.9 mph4.7 kmh 29.87 in1011.5 mb 0.00 in0.0 mm 0.00 in0.0 mm 0.00 in0.0 mm
06:23 AM 81.9°F27.7°C 66.2°F19.0°C 59% 2.0 mph SSW3.2 kmh SSW 4.0 mph6.4 kmh 29.87 in1011.5 mb 0.00 in0.0 mm 0.00 in0.0 mm 0.00 in0.0 mm
06:18 AM 81.9°F27.7°C 65.7°F18.7°C 58% 2.0 mph SW3.2 kmh SW 4.0 mph6.4 kmh 29.86 in1011.2 mb 0.00 in0.0 mm 0.00 in0.0 mm 0.00 in0.0 mm
06:13 AM 82.0°F27.8°C 65.8°F18.8°C 58% 2.0 mph S3.2 kmh S 2.9 mph4.7 kmh 29.86 in1011.2 mb 0.00 in0.0 mm 0.00 in0.0 mm 0.00 in0.0 mm
06:08 AM 82.0°F27.8°C 65.8°F18.8°C 58% 2.0 mph SSW3.2 kmh SSW 2.9 mph4.7 kmh 29.86 in1011.2 mb 0.00 in0.0 mm 0.00 in0.0 mm 0.00 in0.0 mm
06:03 AM 82.2°F27.9°C 66.0°F18.9°C 58% 2.9 mph SSW4.7 kmh SSW 4.0 mph6.4 kmh 29.86 in1011.2 mb 0.00 in0.0 mm 0.00 in0.0 mm 0.00 in0.0 mm
05:58 AM 82.2°F27.9°C 66.0°F18.9°C 58% 2.9 mph S4.7 kmh S 4.0 mph6.4 kmh 29.86 in1011.2 mb 0.00 in0.0 mm 0.00 in0.0 mm 0.00 in0.0 mm
05:53 AM 82.4°F28.0°C 66.2°F19.0°C 58% 2.9 mph SSW4.7 kmh SSW 4.0 mph6.4 kmh 29.86 in1011.2 mb 0.00 in0.0 mm 0.00 in0.0 mm 0.00 in0.0 mm
05:48 AM 82.6°F28.1°C 65.8°F18.8°C 57% 2.0 mph SW3.2 kmh SW 4.9 mph7.9 kmh 29.86 in1011.2 mb 0.00 in0.0 mm 0.00 in0.0 mm 0.00 in0.0 mm
05:43 AM 82.6°F28.1°C 65.8°F18.8°C 57% 2.0 mph S3.2 kmh S 4.9 mph7.9 kmh 29.86 in1011.2 mb 0.00 in0.0 mm 0.00 in0.0 mm 0.00 in0.0 mm
05:38 AM 82.8°F28.2°C 66.0°F18.9°C 57% 2.0 mph S3.2 kmh S 2.9 mph4.7 kmh 29.85 in1010.8 mb 0.00 in0.0 mm 0.00 in0.0 mm 0.00 in0.0 mm
05:33 AM 82.8°F28.2°C 66.0°F18.9°C 57% 2.0 mph S3.2 kmh S 4.9 mph7.9 kmh 29.85 in1010.8 mb 0.00 in0.0 mm 0.00 in0.0 mm 0.00 in0.0 mm
05:28 AM 82.8°F28.2°C 65.5°F18.6°C 56% 2.9 mph SSW4.7 kmh SSW 2.9 mph4.7 kmh 29.85 in1010.8 mb 0.00 in0.0 mm 0.00 in0.0 mm 0.00 in0.0 mm
05:23 AM 82.9°F28.3°C 65.7°F18.7°C 56% 2.9 mph S4.7 kmh S 4.9 mph7.9 kmh 29.85 in1010.8 mb 0.00 in0.0 mm 0.00 in0.0 mm 0.00 in0.0 mm
05:18 AM 82.9°F28.3°C 65.7°F18.7°C 56% 2.0 mph S3.2 kmh S 2.9 mph4.7 kmh 29.85 in1010.8 mb 0.00 in0.0 mm 0.00 in0.0 mm 0.00 in0.0 mm
05:13 AM 82.9°F28.3°C 65.7°F18.7°C 56% 2.9 mph S4.7 kmh S 4.9 mph7.9 kmh 29.84 in1010.5 mb 0.00 in0.0 mm 0.00 in0.0 mm 0.00 in0.0 mm
05:08 AM 82.9°F28.3°C 65.7°F18.7°C 56% 2.9 mph SSW4.7 kmh SSW 4.9 mph7.9 kmh 29.84 in1010.5 mb 0.00 in0.0 mm 0.00 in0.0 mm 0.00 in0.0 mm
05:03 AM 82.9°F28.3°C 65.7°F18.7°C 56% 2.9 mph SE4.7 kmh SE 4.9 mph7.9 kmh 29.84 in1010.5 mb 0.00 in0.0 mm 0.00 in0.0 mm 0.00 in0.0 mm
04:58 AM 82.9°F28.3°C 65.7°F18.7°C 56% 2.0 mph SSW3.2 kmh SSW 4.0 mph6.4 kmh 29.84 in1010.5 mb 0.00 in0.0 mm 0.00 in0.0 mm 0.00 in0.0 mm
04:53 AM 83.1°F28.4°C 65.8°F18.8°C 56% 2.0 mph SSW3.2 kmh SSW 4.9 mph7.9 kmh 29.84 in1010.5 mb 0.00 in0.0 mm 0.00 in0.0 mm 0.00 in0.0 mm
04:48 AM 83.1°F28.4°C 65.3°F18.5°C 55% 2.0 mph S3.2 kmh S 4.9 mph7.9 kmh 29.84 in1010.5 mb 0.00 in0.0 mm 0.00 in0.0 mm 0.00 in0.0 mm
04:43 AM 83.3°F28.5°C 65.5°F18.6°C 55% 2.0 mph S3.2 kmh S 2.9 mph4.7 kmh 29.83 in1010.2 mb 0.00 in0.0 mm 0.00 in0.0 mm 0.00 in0.0 mm
04:38 AM 83.5°F28.6°C 65.7°F18.7°C 55% 0.9 mph S1.4 kmh S 2.9 mph4.7 kmh 29.83 in1010.2 mb 0.00 in0.0 mm 0.00 in0.0 mm 0.00 in0.0 mm
04:33 AM 83.7°F28.7°C 65.3°F18.5°C 54% 0.9 mph S1.4 kmh S 2.9 mph4.7 kmh 29.83 in1010.2 mb 0.00 in0.0 mm 0.00 in0.0 mm 0.00 in0.0 mm
04:27 AM 83.8°F28.8°C 65.5°F18.6°C 54% 0.9 mph S1.4 kmh S 2.0 mph3.2 kmh 29.83 in1010.2 mb 0.00 in0.0 mm 0.00 in0.0 mm 0.00 in0.0 mm
04:22 AM 83.8°F28.8°C 64.9°F18.3°C 53% 0.9 mph S1.4 kmh S 2.0 mph3.2 kmh 29.83 in1010.2 mb 0.00 in0.0 mm 0.00 in0.0 mm 0.00 in0.0 mm
04:17 AM 84.0°F28.9°C 65.1°F18.4°C 53% 2.0 mph S3.2 kmh S 2.9 mph4.7 kmh 29.83 in1010.2 mb 0.00 in0.0 mm 0.00 in0.0 mm 0.00 in0.0 mm
04:12 AM 84.2°F29.0°C 65.3°F18.5°C 53% 2.0 mph S3.2 kmh S 4.0 mph6.4 kmh 29.83 in1010.2 mb 0.00 in0.0 mm 0.00 in0.0 mm 0.00 in0.0 mm
04:07 AM 84.4°F29.1°C 65.3°F18.5°C 53% 2.9 mph S4.7 kmh S 4.9 mph7.9 kmh 29.82 in1009.8 mb 0.00 in0.0 mm 0.00 in0.0 mm 0.00 in0.0 mm
04:02 AM 84.6°F29.2°C 64.9°F18.3°C 52% 2.9 mph S4.7 kmh S 4.0 mph6.4 kmh 29.82 in1009.8 mb 0.00 in0.0 mm 0.00 in0.0 mm 0.00 in0.0 mm
03:57 AM 84.7°F29.3°C 65.1°F18.4°C 52% 2.9 mph S4.7 kmh S 4.9 mph7.9 kmh 29.82 in1009.8 mb 0.00 in0.0 mm 0.00 in0.0 mm 0.00 in0.0 mm
03:52 AM 84.7°F29.3°C 65.1°F18.4°C 52% 2.9 mph S4.7 kmh S 6.9 mph11.1 kmh 29.82 in1009.8 mb 0.00 in0.0 mm 0.00 in0.0 mm 0.00 in0.0 mm
03:47 AM 84.9°F29.4°C 65.3°F18.5°C 52% 2.9 mph S4.7 kmh S 4.9 mph7.9 kmh 29.82 in1009.8 mb 0.00 in0.0 mm 0.00 in0.0 mm 0.00 in0.0 mm
03:42 AM 85.1°F29.5°C 64.9°F18.3°C 51% 2.9 mph S4.7 kmh S 4.9 mph7.9 kmh 29.82 in1009.8 mb 0.00 in0.0 mm 0.00 in0.0 mm 0.00 in0.0 mm
03:37 AM 85.3°F29.6°C 65.1°F18.4°C 51% 2.9 mph ESE4.7 kmh ESE 6.9 mph11.1 kmh 29.82 in1009.8 mb 0.00 in0.0 mm 0.00 in0.0 mm 0.00 in0.0 mm
03:32 AM 85.5°F29.7°C 64.8°F18.2°C 50% 2.9 mph S4.7 kmh S 8.1 mph13.0 kmh 29.82 in1009.8 mb 0.00 in0.0 mm 0.00 in0.0 mm 0.00 in0.0 mm
03:27 AM 85.5°F29.7°C 64.8°F18.2°C 50% 2.9 mph S4.7 kmh S 6.0 mph9.7 kmh 29.82 in1009.8 mb 0.00 in0.0 mm 0.00 in0.0 mm 0.00 in0.0 mm
03:22 AM 85.6°F29.8°C 64.9°F18.3°C 50% 2.9 mph S4.7 kmh S 6.0 mph9.7 kmh 29.82 in1009.8 mb 0.00 in0.0 mm 0.00 in0.0 mm 0.00 in0.0 mm
03:17 AM 85.8°F29.9°C 64.4°F18.0°C 49% 2.9 mph S4.7 kmh S 4.9 mph7.9 kmh 29.82 in1009.8 mb 0.00 in0.0 mm 0.00 in0.0 mm 0.00 in0.0 mm
03:12 AM 86.2°F30.1°C 64.8°F18.2°C 49% 2.9 mph S4.7 kmh S 6.0 mph9.7 kmh 29.82 in1009.8 mb 0.00 in0.0 mm 0.00 in0.0 mm 0.00 in0.0 mm
03:07 AM 86.4°F30.2°C 64.4°F18.0°C 48% 2.9 mph S4.7 kmh S 6.0 mph9.7 kmh 29.82 in1009.8 mb 0.00 in0.0 mm 0.00 in0.0 mm 0.00 in0.0 mm
03:02 AM 86.5°F30.3°C 64.6°F18.1°C 48% 2.9 mph S4.7 kmh S 6.0 mph9.7 kmh 29.81 in1009.5 mb 0.00 in0.0 mm 0.00 in0.0 mm 0.00 in0.0 mm
02:57 AM 86.7°F30.4°C 64.8°F18.2°C 48% 2.9 mph S4.7 kmh S 6.0 mph9.7 kmh 29.81 in1009.5 mb 0.00 in0.0 mm 0.00 in0.0 mm 0.00 in0.0 mm
02:52 AM 86.9°F30.5°C 64.2°F17.9°C 47% 4.0 mph S6.4 kmh S 6.0 mph9.7 kmh 29.81 in1009.5 mb 0.00 in0.0 mm 0.00 in0.0 mm 0.00 in0.0 mm
02:47 AM 87.3°F30.7°C 64.6°F18.1°C 47% 4.0 mph S6.4 kmh S 8.9 mph14.3 kmh 29.81 in1009.5 mb 0.00 in0.0 mm 0.00 in0.0 mm 0.00 in0.0 mm
02:42 AM 87.4°F30.8°C 64.0°F17.8°C 46% 4.0 mph S6.4 kmh S 6.9 mph11.1 kmh 29.81 in1009.5 mb 0.00 in0.0 mm 0.00 in0.0 mm 0.00 in0.0 mm
02:37 AM 87.4°F30.8°C 64.0°F17.8°C 46% 4.0 mph SSW6.4 kmh SSW 6.9 mph11.1 kmh 29.81 in1009.5 mb 0.00 in0.0 mm 0.00 in0.0 mm 0.00 in0.0 mm
02:32 AM 87.6°F30.9°C 63.7°F17.6°C 45% 4.0 mph S6.4 kmh S 8.9 mph14.3 kmh 29.81 in1009.5 mb 0.00 in0.0 mm 0.00 in0.0 mm 0.00 in0.0 mm
02:27 AM 88.0°F31.1°C 64.0°F17.8°C 45% 4.0 mph S6.4 kmh S 6.9 mph11.1 kmh 29.82 in1009.8 mb 0.00 in0.0 mm 0.00 in0.0 mm 0.00 in0.0 mm
02:22 AM 88.2°F31.2°C 64.2°F17.9°C 45% 4.9 mph SW7.9 kmh SW 8.1 mph13.0 kmh 29.81 in1009.5 mb 0.00 in0.0 mm 0.00 in0.0 mm 0.00 in0.0 mm
02:17 AM 88.3°F31.3°C 63.7°F17.6°C 44% 4.9 mph S7.9 kmh S 8.9 mph14.3 kmh 29.82 in1009.8 mb 0.00 in0.0 mm 0.00 in0.0 mm 0.00 in0.0 mm
02:12 AM 88.3°F31.3°C 63.7°F17.6°C 44% 4.0 mph S6.4 kmh S 8.9 mph14.3 kmh 29.82 in1009.8 mb 0.00 in0.0 mm 0.00 in0.0 mm 0.00 in0.0 mm
02:07 AM 88.5°F31.4°C 63.9°F17.7°C 44% 4.9 mph S7.9 kmh S 8.9 mph14.3 kmh 29.82 in1009.8 mb 0.00 in0.0 mm 0.00 in0.0 mm 0.00 in0.0 mm
02:02 AM 88.9°F31.6°C 63.5°F17.5°C 43% 4.9 mph S7.9 kmh S 8.1 mph13.0 kmh 29.81 in1009.5 mb 0.00 in0.0 mm 0.00 in0.0 mm 0.00 in0.0 mm
01:57 AM 88.9°F31.6°C 63.5°F17.5°C 43% 4.9 mph SSW7.9 kmh SSW 8.9 mph14.3 kmh 29.81 in1009.5 mb 0.00 in0.0 mm 0.00 in0.0 mm 0.00 in0.0 mm
01:51 AM 89.1°F31.7°C 63.7°F17.6°C 43% 4.9 mph SSE7.9 kmh SSE 8.1 mph13.0 kmh 29.81 in1009.5 mb 0.00 in0.0 mm 0.00 in0.0 mm 0.00 in0.0 mm
01:46 AM 89.1°F31.7°C 63.7°F17.6°C 43% 4.9 mph S7.9 kmh S 6.9 mph11.1 kmh 29.82 in1009.8 mb 0.00 in0.0 mm 0.00 in0.0 mm 0.00 in0.0 mm
01:41 AM 89.2°F31.8°C 63.1°F17.3°C 42% 4.0 mph SSW6.4 kmh SSW 6.9 mph11.1 kmh 29.82 in1009.8 mb 0.00 in0.0 mm 0.00 in0.0 mm 0.00 in0.0 mm
01:36 AM 89.4°F31.9°C 63.3°F17.4°C 42% 4.0 mph S6.4 kmh S 11.0 mph17.7 kmh 29.82 in1009.8 mb 0.00 in0.0 mm 0.00 in0.0 mm 0.00 in0.0 mm
01:31 AM 89.8°F32.1°C 63.7°F17.6°C 42% 4.0 mph SSW6.4 kmh SSW 8.1 mph13.0 kmh 29.81 in1009.5 mb 0.00 in0.0 mm 0.00 in0.0 mm 0.00 in0.0 mm
01:26 AM 90.0°F32.2°C 63.9°F17.7°C 42% 4.0 mph S6.4 kmh S 8.9 mph14.3 kmh 29.82 in1009.8 mb 0.00 in0.0 mm 0.00 in0.0 mm 0.00 in0.0 mm
01:21 AM 90.1°F32.3°C 63.3°F17.4°C 41% 4.0 mph S6.4 kmh S 8.1 mph13.0 kmh 29.82 in1009.8 mb 0.00 in0.0 mm 0.00 in0.0 mm 0.00 in0.0 mm
01:16 AM 90.3°F32.4°C 63.5°F17.5°C 41% 4.9 mph SSW7.9 kmh SSW 8.1 mph13.0 kmh 29.82 in1009.8 mb 0.00 in0.0 mm 0.00 in0.0 mm 0.00 in0.0 mm
01:11 AM 90.5°F32.5°C 63.0°F17.2°C 40% 4.9 mph SW7.9 kmh SW 8.9 mph14.3 kmh 29.82 in1009.8 mb 0.00 in0.0 mm 0.00 in0.0 mm 0.00 in0.0 mm
01:06 AM 90.7°F32.6°C 63.0°F17.2°C 40% 6.0 mph S9.7 kmh S 10.1 mph16.3 kmh 29.82 in1009.8 mb 0.00 in0.0 mm 0.00 in0.0 mm 0.00 in0.0 mm
01:01 AM 90.9°F32.7°C 63.1°F17.3°C 40% 4.9 mph SE7.9 kmh SE 10.1 mph16.3 kmh 29.82 in1009.8 mb 0.00 in0.0 mm 0.00 in0.0 mm 0.00 in0.0 mm
12:56 AM 91.0°F32.8°C 63.3°F17.4°C 40% 4.9 mph SSW7.9 kmh SSW 8.1 mph13.0 kmh 29.82 in1009.8 mb 0.00 in0.0 mm 0.00 in0.0 mm 0.00 in0.0 mm
12:51 AM 91.0°F32.8°C 62.6°F17.0°C 39% 4.9 mph S7.9 kmh S 8.9 mph14.3 kmh 29.82 in1009.8 mb 0.00 in0.0 mm 0.00 in0.0 mm 0.00 in0.0 mm
12:46 AM 91.2°F32.9°C 62.8°F17.1°C 39% 4.9 mph SW7.9 kmh SW 10.1 mph16.3 kmh 29.82 in1009.8 mb 0.00 in0.0 mm 0.00 in0.0 mm 0.00 in0.0 mm
12:41 AM 91.4°F33.0°C 62.2°F16.8°C 38% 4.9 mph S7.9 kmh S 11.0 mph17.7 kmh 29.81 in1009.5 mb 0.00 in0.0 mm 0.00 in0.0 mm 0.00 in0.0 mm
12:36 AM 91.6°F33.1°C 62.4°F16.9°C 38% 4.9 mph S7.9 kmh S 8.9 mph14.3 kmh 29.81 in1009.5 mb 0.00 in0.0 mm 0.00 in0.0 mm 0.00 in0.0 mm
12:31 AM 91.8°F33.2°C 62.6°F17.0°C 38% 4.9 mph S7.9 kmh S 10.1 mph16.3 kmh 29.81 in1009.5 mb 0.00 in0.0 mm 0.00 in0.0 mm 0.00 in0.0 mm
12:26 AM 91.9°F33.3°C 62.8°F17.1°C 38% 4.9 mph SSW7.9 kmh SSW 8.1 mph13.0 kmh 29.81 in1009.5 mb 0.00 in0.0 mm 0.00 in0.0 mm 0.00 in0.0 mm
12:21 AM 92.1°F33.4°C 62.1°F16.7°C 37% 6.0 mph SSE9.7 kmh SSE 11.0 mph17.7 kmh 29.81 in1009.5 mb 0.00 in0.0 mm 0.00 in0.0 mm 0.00 in0.0 mm
12:16 AM 92.5°F33.6°C 62.4°F16.9°C 37% 6.0 mph S9.7 kmh S 11.0 mph17.7 kmh 29.81 in1009.5 mb 0.00 in0.0 mm 0.00 in0.0 mm 0.00 in0.0 mm
12:11 AM 92.7°F33.7°C 62.6°F17.0°C 37% 6.0 mph SSW9.7 kmh SSW 11.0 mph17.7 kmh 29.81 in1009.5 mb 0.00 in0.0 mm 0.00 in0.0 mm 0.00 in0.0 mm
12:06 AM 92.8°F33.8°C 62.8°F17.1°C 37% 6.0 mph S9.7 kmh S 11.0 mph17.7 kmh 29.81 in1009.5 mb 0.00 in0.0 mm 0.00 in0.0 mm 0.00 in0.0 mm
12:01 AM 93.0°F33.9°C 62.1°F16.7°C 36% 6.9 mph S11.1 kmh S 12.1 mph19.5 kmh 29.81 in1009.5 mb 0.00 in0.0 mm 0.00 in0.0 mm 0.00 in0.0 mm